• Join FlightAware (Why Join?)
  • Login
  • US Flag 
Rudolph Flight #1: Scheduled 
08:01PM EST


 

Airport Tracker/Info


-or-


 

Live Flight TrackerFlight Track Log ✈ TAM3131 ✈ 29-Jun-2013 ✈ SBVT / VIX - SBSP / CGH

Flight Track Log - Related Links

Times and Time Zones

All times are in EDT time to prevent confusion due to time zone crossing. See the TAM3131 flight status page for this flight to view local times or setup timezone preferences in your user account.

Time Position Orientation Groundspeed Altitude Reporting Facility
EDT Latitude Longitude Course Direction KTS MPH feet Rate Location/Type
10:47AM -21.5740 -41.0860 216° Southwest 417 480 29,800  Level FlightAware
10:48AM -21.6590 -41.1540 217° Southwest 423 487 30,500 780 Climbing FlightAware
10:49AM -21.7220 -41.2050 217° Southwest 425 489 31,100 1,020 Climbing FlightAware
10:49AM -21.7860 -41.2570 217° Southwest 419 482 31,900 1,080 Climbing FlightAware
10:50AM -21.8710 -41.3250 217° Southwest 416 479 32,900 1,020 Climbing FlightAware
10:51AM -21.9380 -41.3800 217° Southwest 415 478 33,600 840 Climbing FlightAware
10:52AM -21.9840 -41.4350 228° Southwest 408 470 34,100 660 Climbing FlightAware
10:52AM -22.0400 -41.5130 232° Southwest 411 473 34,600 780 Climbing FlightAware
10:53AM -22.0910 -41.5830 232° Southwest 407 468 35,300 840 Climbing FlightAware
10:54AM -22.1350 -41.6450 233° Southwest 405 466 35,800 540 Climbing FlightAware
10:54AM -22.1790 -41.7050 232° Southwest 405 466 36,000 60 Climbing FlightAware
10:56AM -22.2600 -41.8190 232° Southwest 404 465 36,000  Level FlightAware
10:56AM -22.3130 -41.8930 232° Southwest 402 463 36,000  Level FlightAware
10:57AM -22.3450 -41.9370 232° Southwest 401 461 36,000  Level FlightAware
10:58AM -22.3920 -42.0030 232° Southwest 400 460 36,000  Level FlightAware
10:58AM -22.4420 -42.0730 232° Southwest 398 458 36,000  Level FlightAware
10:59AM -22.4850 -42.1330 232° Southwest 398 458 36,000  Level FlightAware
11:00AM -22.5370 -42.2060 232° Southwest 399 459 36,000  Level FlightAware
11:00AM -22.5820 -42.2690 232° Southwest 400 460 36,000  Level FlightAware
11:01AM -22.6270 -42.3320 232° Southwest 400 460 36,000  Level FlightAware
11:02AM -22.6810 -42.4090 233° Southwest 400 460 36,000  Level FlightAware
11:03AM -22.7270 -42.4730 232° Southwest 401 461 36,000  Level FlightAware
11:03AM -22.7580 -42.5170 233° Southwest 401 461 36,000  Level FlightAware
11:04AM -22.8060 -42.5850 233° Southwest 401 461 36,000  Level FlightAware
11:04AM -22.8390 -42.6320 233° Southwest 401 461 36,000  Level FlightAware
11:05AM -22.8810 -42.6920 233° Southwest 400 460 36,000  Level FlightAware
11:05AM -22.9280 -42.7590 233° Southwest 399 459 36,000  Level FlightAware
11:06AM -22.9630 -42.8080 232° Southwest 399 459 36,000  Level FlightAware
11:07AM -23.0060 -42.8690 233° Southwest 398 458 36,000  Level FlightAware
11:07AM -23.0560 -42.9410 233° Southwest 399 459 36,000  Level FlightAware
11:08AM -23.0980 -43.0010 233° Southwest 399 459 36,000  Level FlightAware
11:09AM -23.1480 -43.0710 232° Southwest 398 458 36,000  Level FlightAware
11:09AM -23.1880 -43.1440 239° Southwest 396 456 36,000  Level FlightAware
11:10AM -23.2160 -43.2220 249° West 396 456 36,000  Level FlightAware
11:12AM -23.2520 -43.4010 258° West 395 455 36,000  Level FlightAware
11:12AM -23.2710 -43.4930 257° West 394 453 36,000  Level FlightAware
11:13AM -23.2870 -43.5740 258° West 393 452 36,000  Level FlightAware
11:14AM -23.3030 -43.6580 258° West 394 453 36,000  Level FlightAware
11:15AM -23.3290 -43.7890 258° West 394 453 36,000  Level FlightAware
11:16AM -23.3490 -43.8910 258° West 394 453 36,000  Level FlightAware
11:17AM -23.3650 -43.9750 258° West 394 453 36,000  Level FlightAware
11:17AM -23.3840 -44.0670 257° West 394 453 36,000  Level FlightAware
11:18AM -23.4020 -44.1500 257° West 394 453 36,000  Level FlightAware
11:19AM -23.4170 -44.2170 256° West 394 453 36,000  Level FlightAware
11:20AM -23.4360 -44.3060 257° West 393 452 36,000  Level FlightAware
11:21AM -23.4630 -44.4340 257° West 392 451 36,000  Level FlightAware
11:21AM -23.4810 -44.5220 257° West 391 450 36,000  Level FlightAware
11:22AM -23.4980 -44.6000 257° West 390 449 36,000  Level FlightAware
11:23AM -23.5140 -44.6740 257° West 391 450 36,000  Level FlightAware
11:23AM -23.5320 -44.7600 257° West 392 451 36,000  Level FlightAware
11:24AM -23.5490 -44.8410 257° West 394 453 36,000 -1,140 Level FlightAware
11:25AM -23.5790 -44.9860 257° West 387 445 33,900 -1,920 Descending FlightAware
11:26AM -23.5950 -45.0610 257° West 384 442 32,400 -2,220 Descending FlightAware
11:27AM -23.6100 -45.1360 258° West 374 430 31,000 -2,160 Descending FlightAware
11:27AM -23.6210 -45.1910 258° West 369 425 29,900 -2,160 Descending FlightAware
11:28AM -23.6360 -45.2610 257° West 364 419 28,500 -2,100 Descending FlightAware
11:29AM -23.6530 -45.3420 257° West 352 405 27,000 -2,040 Descending FlightAware
11:29AM -23.6650 -45.4030 258° West 347 399 25,800 -1,980 Descending FlightAware
11:30AM -23.6810 -45.4790 257° West 341 392 24,400 -1,980 Descending FlightAware
11:31AM -23.6960 -45.5550 258° West 341 392 22,900 -1,980 Descending FlightAware
11:31AM -23.7100 -45.6230 257° West 340 391 21,600 -1,980 Descending FlightAware
11:32AM -23.7240 -45.6900 257° West 337 388 20,300 -2,100 Descending FlightAware
11:33AM -23.7370 -45.7540 257° West 337 388 18,800 -2,460 Descending FlightAware
11:33AM -23.7520 -45.8320 258° West 342 394 16,900 -1,980 Descending FlightAware
11:34AM -23.7650 -45.8940 257° West 327 376 16,000 -1,740 Descending FlightAware
11:35AM -23.7830 -45.9850 258° West 319 367 14,100 -1,860 Descending FlightAware
11:36AM -23.7950 -46.0430 257° West 307 353 13,100 -2,160 Descending FlightAware
11:37AM -23.8090 -46.1110 257° West 290 334 11,100 -2,220 Descending FlightAware
11:37AM -23.8200 -46.1690 258° West 280 322 9,800 -1,740 Descending FlightAware
11:37AM -23.8230 -46.1870 260° West 271 312 9,600 -780 Descending FlightAware
11:38AM -23.8190 -46.2210 277° West 260 299 9,400 -540 Descending FlightAware
11:38AM -23.8130 -46.2530 282° West 254 292 9,200 -660 Descending FlightAware
11:39AM -23.8090 -46.2780 280° West 256 295 8,900 -1,320 Descending FlightAware
11:39AM -23.8020 -46.3190 281° West 257 296 8,000 -1,500 Descending FlightAware
11:39AM -23.7980 -46.3440 280° West 256 295 7,600 -1,260 Descending FlightAware
11:40AM -23.7920 -46.3810 280° West 245 282 7,000 -1,140 Descending FlightAware
11:40AM -23.7860 -46.4160 281° West 231 266 6,500 -900 Descending FlightAware
11:41AM -23.7760 -46.4700 281° West 212 244 5,900 -660 Descending FlightAware
11:42AM -23.7720 -46.4930 281° West 213 245 5,700 -660 Descending FlightAware
11:42AM -23.7660 -46.5280 281° West 218 251 5,300 -600 Descending FlightAware
11:43AM -23.7530 -46.5690 289° West 196 226 5,000 -360 Descending FlightAware
11:43AM -23.7350 -46.5820 327° Northwest 186 214 4,900 -660 Descending FlightAware
11:44AM -23.7180 -46.5930 329° Northwest 173 199 4,500 -1,020 Descending FlightAware
11:44AM -23.6990 -46.6060 328° Northwest 148 170 4,000 -900 Descending FlightAware
11:44AM -23.6940 -46.6100 324° Northwest 139 160 3,900 -720 Descending FlightAware
11:48AM -23.6267 -46.6554 328° Northwest  Level Estimated
11:49AM -23.6267 -46.6554 114° Southeast  Level Estimated
11:49AM -23.6240 -46.6600 114° Southeast 126 145  Level FlightAware
11:50AM -23.6267 -46.6554 114° Southeast  Level Estimated
11:50AM -23.6240 -46.6610 270° West 126 145  Level FlightAware
11:52AM -23.6267 -46.6554 118° Southeast  Level Estimated
11:53AM -23.6267 -46.6554 114° Southeast  Level Estimated
11:54AM -23.6267 -46.6554 114° Southeast  Level Estimated
11:54AM -23.6230 -46.6470 114° Southeast 126 145  Level FlightAware